Alsea, Oregon
Current Conditions -  °F | °C
As of 8:15 AM on Sunday 23 Nov 2014 (Local Time) from KCVO Reporting Station
Broken Clouds Broken Clouds  
Wind Chill: 40°   Ceiling: 4600
Heat Index: 46°   Visibility: 10mi
Dew Point: 43°   Wind: 14mph
Humidity: 87%   Direction: 190°S
Pressure: 30.36"   Gusts: NA
Location:  44.38°N, 123.6°W
Report Text: KCVO 231615Z AUTO 19012KT 10SM FEW029 SCT037 BKN046 08/06 A3036 RMK AO1
Loading
Personal Weather Stations






























Interactive Weather Map New forecast layout! Learn more

10-Day Weather Forecast

Advertisements
Track Severe Weather on mobile